Utica, IL (61373)

4:37 AM CDT on August 31, 2015 (GMT -0500)
Baker Lake | | Change Station
CLOSE
Current Station
Personal Weather Station
Location: Peru, IL
Elevation: 652 ft
Nearby Weather Stations

Elev 652 ft 41.34 °N, 89.11 °W | Updated 1 minute ago

Overcast
Overcast
62.3 °F
Feels Like 62.3 °F
N
0.0
Wind Variable Wind from East
Gusts 0.0 mph

Today
High -- | Low -- °F
--% Chance of Precip.
Yesterday
High -- | Low -- °F
Precip. -- in
6:21 AM 7:30 PM
Waning Gibbous, 96% visible
Pressure 30.04 in
Visibility 2.0 miles
Clouds Scattered Clouds 2200 ft
Scattered Clouds 3600 ft
Dew Point 61 °F
Humidity 96%
Rainfall 0.00 in
Snow Depth Not available.
UV 0 out of 12
Pollen 10.40 out of 12
Air Quality Not available.
Flu Activity Not available.
METAR KVYS 310915Z AUTO 00000KT 2SM BR SCT022 SCT036 17/16 A3004 RMK AO2 T01700161
Pressure 30.04 in
Visibility 2.0 miles
Clouds Scattered Clouds 2200 ft
Scattered Clouds 3600 ft
Dew Point 61 °F
Humidity 96%
Rainfall 0.00 in
Snow Depth Not available.
UV 0 out of 12
Pollen 10.40 out of 12
Air Quality Not available.
Flu Activity Not available.
METAR KVYS 310915Z AUTO 00000KT 2SM BR SCT022 SCT036 17/16 A3004 RMK AO2 T01700161
Nowcast | as of 2:28 am CDT on August 31, 2015

Areas of dense fog will continue to result in localized visibilities of a quarter mile or less. Person traveling overnight should reduce speed...leave extra distance between you and the car in front of you...and use your low beams. Visibilities should begin to quickly improve an hour or so after sunrise.

×

10-Day Weather Forecast

×

Almanac

Astronomy

Aug. 31, 2015 Rise Set
Actual Time
Civil Twilight
Nautical Twilight
Astronomical Twilight
Moon
Length of Visible Light
Length of Day
Tomorrow will be .
, % of the Moon is Illuminated

Today's Extremes

State Highs State Lows

Community

WunderPhotos

Upload Photos

1,851,227 photos uploaded!

WunderBlogs® & News

Nearby

Air Quality

  Air Quality AQ Index Pollutant
Not available.

Snow Depth

Station Depth Elevation

Earthquake Activity

City Distance Mag. Time & Date
Minimum magnitude displayed is 2.5.

Coastal Water Temperatures

Place Temperature

Stations

Nearby Weather Stations

Station Location Temp. Windchill Dew Point Humidity Wind Precip. Elev Updated Type